Time;durP1;ratioP1;P1;durP2;ratioP2;P2;SDS_P1;SDS_P2;PMS_P1;PMS_P2;Temp;Humidity;BMP_temperature;BMP_pressure;BME280_temperature;BME280_humidity;BME280_pressure;Samples;Min_cycle;Max_cycle;Signal;HPM_P1;HPM_P2
2024/03/20 00:02:03;;;;;;;5.20;4.33;;;9.70;74.00;;;;;;5015944;28;20605;-68
2024/03/20 00:04:30;;;;;;;5.37;4.37;;;9.80;74.20;;;;;;5015372;28;20588;-68
2024/03/20 00:06:56;;;;;;;5.60;4.80;;;9.50;74.00;;;;;;5016501;28;20706;-68
2024/03/20 00:09:23;;;;;;;5.00;4.50;;;9.50;74.10;;;;;;5010653;28;20370;-68
2024/03/20 00:11:50;;;;;;;5.07;4.50;;;9.40;75.10;;;;;;5000510;28;20243;-67
2024/03/20 00:14:16;;;;;;;4.73;4.23;;;9.50;75.50;;;;;;5013393;28;20234;-67
2024/03/20 00:16:43;;;;;;;4.83;4.33;;;9.50;76.20;;;;;;5016717;28;20262;-68
2024/03/20 00:19:09;;;;;;;6.37;4.40;;;9.50;76.60;;;;;;5009617;28;20294;-68
2024/03/20 00:21:36;;;;;;;4.60;4.20;;;9.50;76.60;;;;;;5016831;28;20311;-67
2024/03/20 00:24:03;;;;;;;4.43;4.03;;;9.60;76.70;;;;;;5015557;28;20204;-68
2024/03/20 00:26:29;;;;;;;5.17;4.67;;;9.60;76.20;;;;;;5019000;28;20224;-68
2024/03/20 00:28:56;;;;;;;5.40;4.90;;;9.70;76.50;;;;;;5007978;28;20214;-67
2024/03/20 00:31:23;;;;;;;5.50;4.07;;;9.50;76.60;;;;;;5008522;28;20328;-68
2024/03/20 00:33:49;;;;;;;6.13;4.47;;;9.30;77.30;;;;;;5007375;28;20560;-68
2024/03/20 00:36:16;;;;;;;4.63;4.23;;;9.00;78.80;;;;;;5014869;28;20300;-68
2024/03/20 00:38:43;;;;;;;4.67;4.27;;;9.20;80.10;;;;;;5015932;28;20208;-68
2024/03/20 00:41:09;;;;;;;5.43;4.40;;;9.20;80.60;;;;;;5013546;28;20216;-68
2024/03/20 00:43:36;;;;;;;4.63;4.20;;;9.30;80.10;;;;;;5013861;28;20623;-68
2024/03/20 00:46:03;;;;;;;5.20;4.60;;;9.10;80.60;;;;;;5015199;28;20219;-68
2024/03/20 00:48:30;;;;;;;5.23;4.47;;;;;;;;;;5010317;28;20271;-68
2024/03/20 00:50:57;;;;;;;5.97;4.33;;;8.80;96.70;;;;;;5008866;28;20204;-68
2024/03/20 00:53:23;;;;;;;5.97;4.43;;;9.00;87.50;;;;;;5018108;28;20223;-68
2024/03/20 00:55:50;;;;;;;4.87;4.40;;;9.10;86.70;;;;;;5016211;28;20200;-68
2024/03/20 00:58:17;;;;;;;6.43;4.73;;;8.90;86.20;;;;;;5014393;28;20217;-68
2024/03/20 01:00:44;;;;;;;4.93;4.20;;;8.70;86.20;;;;;;5016083;28;20217;-68
2024/03/20 01:03:11;;;;;;;5.10;4.60;;;8.70;85.50;;;;;;5015933;28;20227;-68
2024/03/20 01:05:38;;;;;;;5.07;4.27;;;8.60;84.60;;;;;;5013335;28;20227;-67
2024/03/20 01:08:05;;;;;;;5.03;4.40;;;8.50;85.00;;;;;;5011029;28;20207;-68
2024/03/20 01:10:32;;;;;;;6.23;4.77;;;8.60;83.10;;;;;;5008794;28;20245;-67
2024/03/20 01:12:59;;;;;;;5.07;4.57;;;8.60;81.40;;;;;;5016113;28;20230;-67
2024/03/20 01:15:25;;;;;;;6.20;4.83;;;8.60;81.20;;;;;;5015164;28;20294;-67
2024/03/20 01:17:52;;;;;;;5.53;5.00;;;8.30;81.40;;;;;;5016063;28;20207;-68
2024/03/20 01:20:19;;;;;;;4.03;3.73;;;8.30;81.50;;;;;;5008808;28;20210;-68
2024/03/20 01:22:45;;;;;;;4.40;4.00;;;8.50;81.90;;;;;;5011009;28;20239;-68
2024/03/20 01:25:12;;;;;;;4.83;4.43;;;8.70;81.10;;;;;;5000442;28;20297;-68
2024/03/20 01:27:39;;;;;;;4.97;4.30;;;8.70;80.50;;;;;;5004862;28;20218;-68
2024/03/20 01:30:06;;;;;;;5.00;4.50;;;8.50;81.70;;;;;;5009262;28;20209;-68
2024/03/20 01:32:32;;;;;;;5.03;4.43;;;8.60;82.20;;;;;;5014834;28;20239;-67
2024/03/20 01:34:59;;;;;;;5.23;4.73;;;8.60;82.20;;;;;;5014659;28;20207;-68
2024/03/20 01:37:26;;;;;;;4.90;4.50;;;8.40;82.30;;;;;;5015555;28;20199;-68
2024/03/20 01:39:52;;;;;;;4.73;4.20;;;8.50;83.20;;;;;;5015117;28;20214;-69
2024/03/20 01:42:19;;;;;;;4.90;4.50;;;8.60;83.10;;;;;;5015209;28;20231;-69
2024/03/20 01:44:46;;;;;;;5.03;4.63;;;8.60;82.90;;;;;;5010874;28;20210;-67
2024/03/20 01:47:13;;;;;;;5.50;4.63;;;8.50;83.50;;;;;;5007518;28;20216;-68
2024/03/20 01:49:40;;;;;;;5.97;4.90;;;8.50;83.70;;;;;;5008864;28;20737;-68
2024/03/20 01:52:07;;;;;;;6.43;4.67;;;8.30;84.30;;;;;;5013360;28;20234;-68
2024/03/20 01:54:33;;;;;;;6.53;4.80;;;8.20;85.80;;;;;;5014230;28;20203;-67
2024/03/20 01:57:00;;;;;;;7.10;4.87;;;8.50;86.60;;;;;;5013837;28;20217;-68
2024/03/20 01:59:27;;;;;;;6.30;4.73;;;8.50;86.40;;;;;;5014336;28;20211;-68
2024/03/20 02:01:53;;;;;;;5.00;4.50;;;8.60;85.50;;;;;;5009890;28;20231;-67
2024/03/20 02:04:20;;;;;;;5.63;4.87;;;8.60;84.60;;;;;;5008337;28;20587;-69
2024/03/20 02:06:47;;;;;;;4.93;4.53;;;8.60;84.60;;;;;;5013248;28;20756;-68
2024/03/20 02:09:13;;;;;;;4.90;4.40;;;8.70;83.70;;;;;;5014098;28;20210;-68
2024/03/20 02:11:41;;;;;;;5.30;4.37;;;8.70;87.50;;;;;;5014089;28;20264;-68
2024/03/20 02:14:08;;;;;;;5.87;4.47;;;8.60;88.10;;;;;;5017470;28;20214;-67
2024/03/20 02:16:35;;;;;;;5.00;4.60;;;8.50;88.80;;;;;;5014412;28;20733;-68
2024/03/20 02:19:01;;;;;;;4.90;4.40;;;8.50;87.60;;;;;;4994959;28;20216;-68
2024/03/20 02:21:27;;;;;;;4.70;4.30;;;8.50;88.00;;;;;;5011760;28;20305;-68
2024/03/20 02:23:54;;;;;;;4.50;4.20;;;8.40;87.90;;;;;;5006537;28;20218;-68
2024/03/20 02:26:21;;;;;;;5.33;4.63;;;8.30;88.60;;;;;;5014087;28;20237;-68
2024/03/20 02:28:48;;;;;;;4.97;4.10;;;8.40;88.00;;;;;;5014278;28;20596;-68
2024/03/20 02:31:15;;;;;;;4.50;4.10;;;8.40;88.10;;;;;;5014362;28;20211;-68
2024/03/20 02:33:41;;;;;;;4.60;4.20;;;8.50;87.30;;;;;;5014637;28;20565;-68
2024/03/20 02:36:08;;;;;;;4.60;4.20;;;8.30;87.80;;;;;;5010550;28;20816;-68
2024/03/20 02:38:35;;;;;;;4.17;3.77;;;8.40;87.70;;;;;;5010770;28;20557;-68
2024/03/20 02:41:01;;;;;;;5.13;4.17;;;8.50;87.20;;;;;;5008155;28;20216;-68
2024/03/20 02:43:29;;;;;;;4.07;3.77;;;8.40;87.30;;;;;;5009372;28;20203;-68
2024/03/20 02:45:55;;;;;;;4.80;3.90;;;8.30;87.20;;;;;;5014334;28;20326;-68
2024/03/20 02:48:22;;;;;;;4.53;4.00;;;8.30;87.30;;;;;;5014483;28;20211;-67
2024/03/20 02:50:48;;;;;;;4.90;3.90;;;8.30;87.10;;;;;;5013838;28;20207;-68
2024/03/20 02:53:15;;;;;;;4.80;4.33;;;8.30;87.10;;;;;;5014728;28;20265;-68
2024/03/20 02:55:42;;;;;;;4.10;3.73;;;8.30;87.00;;;;;;5014659;28;20210;-68
2024/03/20 02:58:08;;;;;;;4.50;3.50;;;8.30;87.20;;;;;;5009064;28;20676;-68
2024/03/20 03:00:35;;;;;;;4.57;4.17;;;8.20;87.30;;;;;;5013650;28;20214;-68
2024/03/20 03:03:02;;;;;;;3.50;3.20;;;8.20;86.90;;;;;;5009520;28;20313;-68
2024/03/20 03:05:29;;;;;;;3.83;3.53;;;8.20;86.60;;;;;;5014223;28;20226;-68
2024/03/20 03:07:55;;;;;;;4.00;3.60;;;8.20;86.50;;;;;;5013246;28;20261;-68
2024/03/20 03:10:22;;;;;;;4.90;3.70;;;8.20;84.00;;;;;;5014104;28;20704;-68
2024/03/20 03:12:49;;;;;;;3.87;3.57;;;8.20;82.50;;;;;;5013877;28;20280;-68
2024/03/20 03:15:15;;;;;;;4.07;3.53;;;8.30;81.20;;;;;;5006392;28;20205;-68
2024/03/20 03:17:42;;;;;;;4.10;3.60;;;8.20;80.80;;;;;;5012066;28;20413;-67
2024/03/20 03:20:14;;;;;;;4.30;3.90;;;8.00;80.30;;;;;;5016367;28;20210;-68
2024/03/20 03:22:40;;;;;;;5.10;4.10;;;7.90;80.90;;;;;;5017221;28;20238;-67
2024/03/20 03:25:07;;;;;;;4.00;3.70;;;7.70;81.30;;;;;;5011411;28;20210;-68
2024/03/20 03:27:34;;;;;;;4.23;3.90;;;7.70;81.10;;;;;;5018541;28;20213;-68
2024/03/20 03:30:00;;;;;;;3.80;3.50;;;7.70;80.20;;;;;;5017653;28;20681;-68
2024/03/20 03:32:27;;;;;;;5.43;4.20;;;7.70;79.90;;;;;;5011090;28;20242;-67
2024/03/20 03:34:54;;;;;;;3.80;3.50;;;7.90;79.40;;;;;;5007939;28;20206;-67
2024/03/20 03:37:21;;;;;;;4.13;3.73;;;8.00;78.70;;;;;;5012314;28;20226;-66
2024/03/20 03:39:47;;;;;;;4.07;3.67;;;8.10;77.70;;;;;;5014258;28;20210;-68
2024/03/20 03:42:15;;;;;;;4.10;3.70;;;8.20;77.50;;;;;;5009238;28;20235;-68
2024/03/20 03:44:41;;;;;;;3.87;3.57;;;7.90;78.10;;;;;;5002510;28;20707;-67
2024/03/20 03:47:08;;;;;;;5.33;3.80;;;7.90;78.30;;;;;;5013538;28;20233;-68
2024/03/20 03:49:35;;;;;;;3.90;3.60;;;7.90;78.00;;;;;;5010025;28;20211;-68
2024/03/20 03:52:02;;;;;;;3.60;3.30;;;7.90;77.80;;;;;;5008265;28;20227;-67
2024/03/20 03:54:28;;;;;;;4.63;3.33;;;7.90;77.80;;;;;;5014414;28;20211;-67
2024/03/20 03:56:55;;;;;;;4.00;3.70;;;7.90;77.80;;;;;;5008308;28;20207;-68
2024/03/20 03:59:22;;;;;;;4.03;3.70;;;7.90;77.90;;;;;;5006845;28;20661;-68
2024/03/20 04:01:49;;;;;;;3.50;3.20;;;7.70;77.70;;;;;;5013989;28;20230;-68
2024/03/20 04:04:15;;;;;;;4.63;4.10;;;7.60;78.90;;;;;;5001023;28;20220;-68
2024/03/20 04:06:42;;;;;;;4.00;3.60;;;7.70;78.20;;;;;;5014175;28;20230;-68
2024/03/20 04:09:10;;;;;;;3.93;3.63;;;7.70;77.90;;;;;;5013843;28;20222;-68
2024/03/20 04:11:37;;;;;;;4.13;3.70;;;7.50;78.50;;;;;;5015543;28;20336;-68
2024/03/20 04:14:03;;;;;;;6.07;3.60;;;7.50;78.60;;;;;;5005310;28;20213;-68
2024/03/20 04:16:29;;;;;;;3.93;3.50;;;7.60;78.50;;;;;;5003943;28;20217;-69
2024/03/20 04:18:56;;;;;;;3.63;3.33;;;7.60;77.70;;;;;;5012863;28;20671;-68
2024/03/20 04:21:24;;;;;;;4.20;3.20;;;7.60;77.50;;;;;;5006507;28;20236;-69
2024/03/20 04:23:51;;;;;;;3.70;3.40;;;7.60;77.40;;;;;;5009181;28;20242;-68
2024/03/20 04:26:17;;;;;;;3.80;3.50;;;7.60;77.30;;;;;;5007618;28;20704;-68
2024/03/20 04:28:46;;;;;;;4.73;3.43;;;7.50;76.80;;;;;;5012863;28;20220;-67
2024/03/20 04:31:13;;;;;;;4.03;3.73;;;7.50;78.00;;;;;;5008706;28;20214;-68
2024/03/20 04:33:40;;;;;;;3.77;3.47;;;7.50;78.20;;;;;;5013370;28;20238;-68
2024/03/20 04:36:07;;;;;;;4.60;3.20;;;7.40;77.50;;;;;;5011057;28;20198;-68
2024/03/20 04:38:34;;;;;;;4.40;4.00;;;7.50;76.40;;;;;;5011781;28;20210;-68
2024/03/20 04:41:01;;;;;;;4.00;3.60;;;7.40;76.20;;;;;;5012115;28;23427;-68
2024/03/20 04:43:27;;;;;;;4.67;3.30;;;7.30;77.00;;;;;;5006029;28;20665;-68
2024/03/20 04:45:54;;;;;;;3.97;3.67;;;7.30;76.80;;;;;;5010132;28;20229;-68
2024/03/20 04:48:21;;;;;;;4.30;3.00;;;7.20;76.80;;;;;;5012748;28;20214;-68
2024/03/20 04:50:48;;;;;;;3.33;3.03;;;7.20;76.30;;;;;;5006304;28;20206;-68
2024/03/20 04:53:14;;;;;;;3.80;3.07;;;7.40;75.70;;;;;;5007116;28;20230;-68
2024/03/20 04:55:41;;;;;;;3.93;3.27;;;7.40;74.80;;;;;;5013204;28;20206;-68
2024/03/20 04:58:08;;;;;;;3.80;3.23;;;7.40;75.80;;;;;;5007748;28;20292;-68
2024/03/20 05:00:34;;;;;;;4.17;3.03;;;7.40;76.00;;;;;;5007439;28;20218;-68
2024/03/20 05:03:02;;;;;;;3.80;3.50;;;7.40;76.10;;;;;;5012432;28;20246;-68
2024/03/20 05:05:28;;;;;;;3.20;2.90;;;7.30;76.40;;;;;;5007194;28;20282;-68
2024/03/20 05:07:55;;;;;;;3.63;3.33;;;7.30;76.40;;;;;;5005872;28;20207;-67
2024/03/20 05:10:22;;;;;;;3.30;3.00;;;7.40;76.00;;;;;;5011450;28;20209;-68
2024/03/20 05:12:49;;;;;;;3.43;3.00;;;7.40;75.70;;;;;;5007319;28;20245;-68
2024/03/20 05:15:15;;;;;;;5.13;3.67;;;7.30;76.10;;;;;;5014526;28;20240;-67
2024/03/20 05:17:42;;;;;;;4.33;3.30;;;7.20;75.60;;;;;;5002314;28;20579;-68
2024/03/20 05:20:10;;;;;;;3.70;3.00;;;7.10;76.40;;;;;;5010902;28;20706;-68
2024/03/20 05:22:36;;;;;;;5.73;3.47;;;7.20;76.10;;;;;;5012925;28;20311;-68
2024/03/20 05:25:03;;;;;;;3.60;3.00;;;7.30;76.00;;;;;;5006810;28;20219;-68
2024/03/20 05:27:28;;;;;;;5.10;3.97;;;7.40;75.00;;;;;;5012831;28;20225;-68
2024/03/20 05:29:55;;;;;;;3.43;3.07;;;7.60;74.90;;;;;;5012651;28;20296;-68
2024/03/20 05:32:21;;;;;;;3.60;3.30;;;7.50;74.50;;;;;;5012042;28;20241;-69
2024/03/20 05:34:47;;;;;;;3.03;2.53;;;7.50;74.60;;;;;;5002142;28;20270;-68
2024/03/20 05:37:13;;;;;;;2.90;2.70;;;7.40;74.70;;;;;;5010820;28;20597;-67
2024/03/20 05:39:40;;;;;;;3.23;3.03;;;7.30;74.90;;;;;;5013065;28;20221;-68
2024/03/20 05:42:05;;;;;;;5.90;2.93;;;7.40;74.70;;;;;;5007600;28;20759;-68
2024/03/20 05:44:32;;;;;;;3.43;3.00;;;7.40;74.70;;;;;;5011609;28;20207;-68
2024/03/20 05:46:57;;;;;;;3.77;2.80;;;7.40;74.70;;;;;;5013043;28;20229;-68
2024/03/20 05:49:24;;;;;;;3.20;3.00;;;7.40;74.70;;;;;;5013320;28;20204;-68
2024/03/20 05:51:50;;;;;;;3.30;3.00;;;7.30;74.70;;;;;;5005803;28;20903;-68
2024/03/20 05:54:16;;;;;;;3.33;2.90;;;7.40;74.70;;;;;;5008784;28;20212;-68
2024/03/20 05:56:42;;;;;;;3.97;2.80;;;7.50;74.80;;;;;;4995937;28;20213;-68
2024/03/20 05:59:09;;;;;;;3.77;3.30;;;7.50;74.80;;;;;;5012221;28;20213;-68
2024/03/20 06:01:34;;;;;;;4.13;3.07;;;7.60;74.90;;;;;;5003343;28;20225;-67
2024/03/20 06:04:01;;;;;;;3.20;3.00;;;7.50;74.80;;;;;;5012526;28;20301;-68
2024/03/20 06:06:27;;;;;;;4.70;2.97;;;7.60;74.90;;;;;;5010861;28;20221;-68
2024/03/20 06:08:54;;;;;;;3.80;3.00;;;7.60;74.90;;;;;;5012268;28;20235;-68
2024/03/20 06:11:19;;;;;;;3.43;3.07;;;7.50;74.80;;;;;;5005953;28;20245;-68
2024/03/20 06:13:46;;;;;;;4.13;3.43;;;7.50;74.80;;;;;;5010893;28;20210;-68
2024/03/20 06:16:12;;;;;;;4.00;3.37;;;7.50;74.80;;;;;;5008797;28;20256;-69
2024/03/20 06:18:39;;;;;;;3.23;2.93;;;7.60;74.90;;;;;;4999769;28;20201;-68
2024/03/20 06:21:06;;;;;;;3.20;2.90;;;7.60;74.90;;;;;;5004202;28;20209;-69
2024/03/20 06:23:32;;;;;;;3.03;2.73;;;7.90;74.20;;;;;;5011909;28;20210;-68
2024/03/20 06:25:58;;;;;;;4.20;3.20;;;8.10;73.50;;;;;;4998446;28;20256;-68
2024/03/20 06:28:25;;;;;;;4.87;2.73;;;8.40;72.40;;;;;;5012420;28;20210;-67
2024/03/20 06:30:53;;;;;;;3.57;3.10;;;8.60;71.70;;;;;;5010128;28;20217;-68
2024/03/20 06:33:20;;;;;;;4.53;3.20;;;8.80;71.20;;;;;;5003195;28;20237;-67
2024/03/20 06:35:45;;;;;;;3.73;3.03;;;9.10;70.90;;;;;;5010589;28;20207;-67
2024/03/20 06:38:13;;;;;;;4.87;3.20;;;9.30;69.50;;;;;;5007256;28;20206;-66
2024/03/20 06:40:39;;;;;;;4.93;3.20;;;9.20;70.20;;;;;;4996718;28;20235;-66
2024/03/20 06:43:06;;;;;;;4.80;2.90;;;9.70;70.10;;;;;;4995105;28;20317;-66
2024/03/20 06:45:33;;;;;;;4.57;3.07;;;9.90;69.80;;;;;;5002734;28;20615;-68
2024/03/20 06:48:01;;;;;;;5.67;3.77;;;10.00;67.00;;;;;;5003380;28;21216;-69
2024/03/20 06:50:28;;;;;;;7.47;3.70;;;10.20;67.20;;;;;;4996630;28;20205;-69
2024/03/20 06:52:56;;;;;;;7.90;3.57;;;10.30;65.70;;;;;;5008863;28;20334;-68
2024/03/20 06:55:22;;;;;;;4.57;3.73;;;10.10;65.60;;;;;;5014688;28;20237;-69
2024/03/20 06:57:48;;;;;;;7.50;3.60;;;10.10;65.10;;;;;;5009486;28;20205;-68
2024/03/20 07:00:17;;;;;;;4.77;3.33;;;10.40;65.30;;;;;;5006763;28;20569;-69
2024/03/20 07:02:43;;;;;;;3.30;2.77;;;10.70;64.60;;;;;;5010369;28;20260;-68
2024/03/20 07:05:09;;;;;;;5.33;2.83;;;10.90;63.10;;;;;;5009973;28;20240;-68
2024/03/20 07:07:36;;;;;;;5.37;3.23;;;10.40;64.20;;;;;;5013143;28;20816;-65
2024/03/20 07:10:01;;;;;;;4.13;3.13;;;10.70;64.80;;;;;;5004676;28;20215;-71
2024/03/20 07:12:28;;;;;;;3.73;3.03;;;11.10;63.40;;;;;;5006148;28;20316;-71
2024/03/20 07:14:54;;;;;;;4.30;3.27;;;11.30;63.30;;;;;;5003494;28;20271;-69
2024/03/20 07:17:21;;;;;;;3.37;2.97;;;11.30;62.10;;;;;;4983276;28;20568;-69
2024/03/20 07:19:51;;;;;;;3.27;2.97;;;11.50;62.40;;;;;;5009935;28;20210;-70
2024/03/20 07:22:18;;;;;;;3.07;2.87;;;11.60;61.50;;;;;;5003105;28;20233;-72
2024/03/20 07:24:44;;;;;;;4.10;3.03;;;11.80;61.80;;;;;;5005547;28;20214;-72
2024/03/20 07:27:11;;;;;;;3.40;2.77;;;11.70;60.90;;;;;;5007842;28;20368;-66
2024/03/20 07:29:37;;;;;;;3.87;2.80;;;11.50;61.00;;;;;;5004293;28;20297;-69
2024/03/20 07:32:07;;;;;;;3.80;2.83;;;11.40;61.40;;;;;;5003060;28;20224;-68
2024/03/20 07:34:32;;;;;;;4.17;3.00;;;11.40;61.80;;;;;;5012826;28;20218;-68
2024/03/20 07:36:59;;;;;;;3.50;3.13;;;11.70;61.90;;;;;;5010394;28;20368;-69
2024/03/20 07:39:27;;;;;;;4.57;2.90;;;11.90;62.10;;;;;;4998254;28;20342;-68
2024/03/20 07:41:54;;;;;;;5.83;2.80;;;12.30;59.90;;;;;;4998678;28;20222;-69
2024/03/20 07:44:20;;;;;;;4.27;2.97;;;12.30;59.80;;;;;;5009845;28;20233;-69
2024/03/20 07:46:46;;;;;;;5.40;3.10;;;12.40;60.00;;;;;;5011726;28;20390;-68
2024/03/20 07:49:12;;;;;;;4.33;3.00;;;12.50;59.20;;;;;;5005894;28;20211;-69
2024/03/20 07:51:39;;;;;;;3.93;3.07;;;12.40;59.70;;;;;;5004596;28;20239;-70
2024/03/20 07:54:05;;;;;;;4.10;3.60;;;12.60;59.50;;;;;;5011380;28;20338;-69
2024/03/20 07:56:31;;;;;;;3.30;2.90;;;12.60;58.40;;;;;;5010534;28;20694;-68
2024/03/20 07:58:57;;;;;;;3.20;2.90;;;12.80;59.60;;;;;;4999831;28;20207;-68
2024/03/20 08:01:25;;;;;;;3.67;2.87;;;13.10;58.40;;;;;;5011790;28;20232;-69
2024/03/20 08:03:50;;;;;;;4.23;2.80;;;13.30;57.60;;;;;;5003100;28;20221;-70
2024/03/20 08:06:17;;;;;;;5.30;3.03;;;13.50;57.80;;;;;;5001340;28;20229;-69
2024/03/20 08:08:44;;;;;;;4.23;2.97;;;13.70;57.20;;;;;;5008526;28;20231;-70
2024/03/20 08:11:10;;;;;;;3.30;2.57;;;13.80;56.50;;;;;;5011200;28;20260;-69
2024/03/20 08:13:36;;;;;;;2.97;2.77;;;13.90;56.20;;;;;;4997150;28;20739;-70
2024/03/20 08:16:03;;;;;;;3.93;2.33;;;13.90;55.40;;;;;;5008679;28;20289;-70
2024/03/20 08:18:31;;;;;;;2.70;2.50;;;14.40;55.40;;;;;;5009894;28;20213;-69
2024/03/20 08:20:58;;;;;;;3.30;3.00;;;14.20;53.90;;;;;;5004444;28;20255;-70
2024/03/20 08:23:24;;;;;;;2.57;2.37;;;14.10;54.00;;;;;;5004443;28;20237;-70
2024/03/20 08:25:54;;;;;;;4.87;2.60;;;14.50;54.20;;;;;;5005830;28;20230;-70
2024/03/20 08:28:20;;;;;;;3.67;2.40;;;14.90;53.40;;;;;;5003967;28;20291;-69
2024/03/20 08:30:47;;;;;;;5.03;2.73;;;14.90;53.00;;;;;;5008219;28;20236;-69
2024/03/20 08:33:13;;;;;;;4.73;2.87;;;15.20;52.80;;;;;;4999307;28;20831;-70
2024/03/20 08:35:39;;;;;;;3.23;2.50;;;15.40;52.70;;;;;;5002518;28;20230;-70
2024/03/20 08:38:06;;;;;;;2.83;2.50;;;15.50;52.60;;;;;;5005690;28;20202;-70
2024/03/20 08:40:33;;;;;;;2.90;2.70;;;15.40;51.80;;;;;;5011594;28;20290;-70
2024/03/20 08:42:58;;;;;;;2.33;2.20;;;15.70;51.90;;;;;;5005995;28;20230;-69
2024/03/20 08:45:25;;;;;;;2.53;2.10;;;16.20;50.00;;;;;;5007864;28;20269;-70
2024/03/20 08:47:52;;;;;;;3.83;2.00;;;17.50;46.50;;;;;;5004362;28;20231;-69
2024/03/20 08:50:19;;;;;;;3.30;2.00;;;18.90;44.70;;;;;;5004166;28;20206;-70
2024/03/20 08:52:45;;;;;;;2.43;2.23;;;18.80;44.90;;;;;;4995184;28;20235;-69
2024/03/20 08:55:12;;;;;;;4.30;2.27;;;17.80;46.80;;;;;;4982273;28;20291;-69
2024/03/20 08:57:39;;;;;;;2.90;2.10;;;17.90;47.20;;;;;;5001059;28;20238;-70
2024/03/20 09:00:08;;;;;;;2.40;2.20;;;18.20;48.50;;;;;;5003260;28;20721;-70
2024/03/20 09:02:34;;;;;;;2.23;2.10;;;18.40;48.00;;;;;;5000878;28;20606;-70
2024/03/20 09:05:00;;;;;;;1.80;1.70;;;18.30;53.10;;;;;;5002918;28;20570;-70
2024/03/20 09:07:26;;;;;;;2.00;1.90;;;18.30;53.80;;;;;;5003440;28;20230;-70
2024/03/20 09:09:52;;;;;;;1.90;1.80;;;18.10;60.10;;;;;;4998451;28;20229;-70
2024/03/20 09:12:18;;;;;;;2.23;2.03;;;18.50;55.20;;;;;;4990963;28;20828;-70
2024/03/20 09:14:45;;;;;;;1.70;1.60;;;19.00;48.50;;;;;;4997862;28;20220;-70
2024/03/20 09:17:10;;;;;;;1.80;1.58;;;18.40;47.40;;;;;;4999321;28;20214;-70
2024/03/20 09:19:37;;;;;;;3.80;1.98;;;19.10;48.00;;;;;;5001346;28;20210;-70
2024/03/20 09:22:04;;;;;;;1.40;1.30;;;19.60;53.10;;;;;;5004048;28;20599;-70
2024/03/20 09:24:30;;;;;;;2.28;1.60;;;20.00;49.20;;;;;;5001051;28;20203;-71
2024/03/20 09:26:56;;;;;;;1.70;1.60;;;19.70;55.10;;;;;;4997112;28;20227;-69
2024/03/20 09:29:23;;;;;;;2.72;1.92;;;19.80;53.50;;;;;;5003403;28;20195;-70
2024/03/20 09:31:48;;;;;;;2.47;1.60;;;20.10;52.40;;;;;;4986792;28;20419;-69
2024/03/20 09:34:15;;;;;;;1.55;1.45;;;20.40;51.40;;;;;;4998816;28;20309;-69
2024/03/20 09:36:40;;;;;;;3.95;1.77;;;20.70;48.40;;;;;;5002326;28;20689;-70
2024/03/20 09:39:10;;;;;;;2.28;1.95;;;19.50;44.00;;;;;;5002517;28;20207;-68
2024/03/20 09:41:37;;;;;;;2.15;1.85;;;19.30;44.90;;;;;;4997063;28;20700;-68
2024/03/20 09:44:04;;;;;;;2.00;1.85;;;20.30;44.50;;;;;;5003803;28;20276;-67
2024/03/20 09:46:29;;;;;;;3.78;1.80;;;20.80;43.90;;;;;;5011558;28;20594;-69
2024/03/20 09:48:56;;;;;;;3.13;1.80;;;20.90;43.40;;;;;;5003909;28;20213;-67
2024/03/20 09:51:21;;;;;;;2.15;1.98;;;21.00;57.50;;;;;;4995339;28;20244;-67
2024/03/20 09:53:49;;;;;;;2.45;2.17;;;21.20;48.30;;;;;;4998090;28;20203;-68
2024/03/20 09:56:15;;;;;;;2.25;1.60;;;21.40;47.00;;;;;;4999934;28;20704;-68
2024/03/20 09:58:41;;;;;;;2.67;1.70;;;21.80;36.80;;;;;;4994973;28;20195;-69
2024/03/20 10:01:07;;;;;;;1.98;1.65;;;22.00;30.50;;;;;;5000598;28;20208;-69
2024/03/20 10:03:33;;;;;;;2.10;1.90;;;21.80;29.50;;;;;;5010803;28;20207;-69
2024/03/20 10:05:59;;;;;;;1.50;1.40;;;21.00;30.60;;;;;;5009864;28;20207;-69
2024/03/20 10:08:25;;;;;;;1.80;1.70;;;21.40;30.90;;;;;;5010901;28;20231;-68
2024/03/20 10:10:51;;;;;;;1.60;1.50;;;22.10;30.30;;;;;;5005940;28;20689;-69
2024/03/20 10:13:18;;;;;;;1.80;1.70;;;22.60;52.80;;;;;;4993085;28;20223;-69
2024/03/20 10:15:43;;;;;;;2.05;1.85;;;22.80;41.30;;;;;;5008728;28;20214;-69
2024/03/20 10:18:10;;;;;;;1.88;1.40;;;23.00;44.40;;;;;;5006604;28;20206;-69
2024/03/20 10:20:36;;;;;;;3.60;1.55;;;23.30;28.00;;;;;;5000707;28;20199;-69
2024/03/20 10:23:03;;;;;;;2.97;1.65;;;23.00;26.80;;;;;;5006239;28;20227;-69
2024/03/20 10:25:28;;;;;;;1.90;1.70;;;23.50;35.80;;;;;;5007553;28;20211;-68
2024/03/20 10:27:55;;;;;;;1.58;1.30;;;25.00;25.20;;;;;;5010407;28;20760;-69
2024/03/20 10:30:21;;;;;;;1.98;1.67;;;27.10;30.50;;;;;;5008510;28;20206;-66
2024/03/20 10:32:48;;;;;;;2.47;1.80;;;29.00;28.80;;;;;;5007460;28;20242;-66
2024/03/20 10:35:14;;;;;;;1.67;1.55;;;30.20;20.30;;;;;;4992079;28;20243;-67
2024/03/20 10:37:40;;;;;;;1.92;1.65;;;29.60;19.40;;;;;;5002012;28;20732;-65
2024/03/20 10:40:07;;;;;;;2.90;1.50;;;31.30;17.50;;;;;;5001039;28;20677;-67
2024/03/20 10:42:35;;;;;;;1.50;1.30;;;32.00;16.10;;;;;;5005322;28;20728;-66
2024/03/20 10:45:01;;;;;;;1.40;1.30;;;;;;;;;;4994600;28;20308;-67
2024/03/20 10:47:28;;;;;;;1.45;1.35;;;;;;;;;;5011077;28;20234;-67
2024/03/20 10:49:54;;;;;;;1.60;1.50;;;29.80;28.90;;;;;;5004098;28;20732;-67
2024/03/20 10:52:20;;;;;;;2.10;1.30;;;29.70;23.90;;;;;;5008863;28;20222;-67
2024/03/20 10:54:46;;;;;;;2.00;1.30;;;28.50;29.10;;;;;;4998879;28;20200;-67
2024/03/20 10:57:13;;;;;;;1.58;1.48;;;29.00;23.00;;;;;;5003200;28;20202;-68
2024/03/20 10:59:38;;;;;;;1.60;1.42;;;28.50;25.80;;;;;;5000741;28;20207;-63
2024/03/20 11:02:05;;;;;;;6.68;1.92;;;27.10;30.30;;;;;;4999311;28;20288;-63
2024/03/20 11:04:30;;;;;;;2.08;1.38;;;25.80;30.00;;;;;;4998249;28;20592;-62
2024/03/20 11:06:58;;;;;;;1.63;1.33;;;26.20;49.30;;;;;;5007858;28;20222;-60
2024/03/20 11:09:24;;;;;;;2.53;1.25;;;27.30;47.20;;;;;;5006396;28;20222;-61
2024/03/20 11:11:51;;;;;;;5.80;1.50;;;27.90;46.30;;;;;;5004070;28;20227;-62
2024/03/20 11:14:17;;;;;;;2.25;1.38;;;28.50;42.10;;;;;;5008392;28;20293;-61
2024/03/20 11:16:43;;;;;;;1.40;1.30;;;28.50;42.80;;;;;;4995770;28;20290;-62
2024/03/20 11:19:09;;;;;;;1.33;1.20;;;29.70;39.80;;;;;;5007886;28;20210;-62
2024/03/20 11:21:36;;;;;;;2.53;1.40;;;31.80;32.70;;;;;;5008248;28;20321;-62
2024/03/20 11:24:01;;;;;;;1.52;1.42;;;32.90;31.20;;;;;;4997962;28;20580;-61
2024/03/20 11:26:28;;;;;;;1.80;1.30;;;32.30;30.30;;;;;;4997265;28;20199;-61
2024/03/20 11:28:53;;;;;;;2.60;1.42;;;32.90;32.90;;;;;;4998238;28;20219;-62
2024/03/20 11:31:21;;;;;;;1.60;1.27;;;32.80;34.90;;;;;;5004972;28;20211;-62
2024/03/20 11:33:46;;;;;;;2.35;1.52;;;30.80;32.40;;;;;;5003943;28;20214;-62
2024/03/20 11:36:13;;;;;;;1.90;1.40;;;32.20;31.50;;;;;;5002416;28;20696;-63
2024/03/20 11:38:38;;;;;;;2.00;1.10;;;28.70;24.10;;;;;;5008129;28;20286;-62
2024/03/20 11:41:05;;;;;;;1.10;1.00;;;24.80;19.50;;;;;;5012265;28;20233;-61
2024/03/20 11:43:33;;;;;;;1.20;1.20;;;22.50;22.30;;;;;;5001818;28;20211;-62
2024/03/20 11:46:00;;;;;;;1.33;1.20;;;21.80;23.30;;;;;;5007085;28;20273;-62
2024/03/20 11:48:26;;;;;;;1.88;1.33;;;21.40;24.00;;;;;;4999038;28;20322;-62
2024/03/20 11:50:52;;;;;;;1.40;1.27;;;20.80;25.40;;;;;;5004367;28;20237;-60
2024/03/20 11:53:18;;;;;;;1.60;1.40;;;20.80;24.70;;;;;;5011109;28;20448;-60
2024/03/20 11:55:45;;;;;;;2.50;2.28;;;20.10;24.80;;;;;;5003311;28;20211;-60
2024/03/20 11:58:12;;;;;;;3.55;2.90;;;20.40;25.20;;;;;;5007782;28;20214;-60
2024/03/20 12:00:39;;;;;;;1.48;1.38;;;20.80;24.40;;;;;;5012263;28;20203;-59
2024/03/20 12:03:05;;;;;;;1.70;1.60;;;20.50;24.70;;;;;;5008763;28;20231;-59
2024/03/20 12:05:31;;;;;;;1.38;1.25;;;20.40;24.60;;;;;;5008018;28;20205;-59
2024/03/20 12:07:57;;;;;;;1.60;1.50;;;20.60;24.10;;;;;;5005596;28;20212;-58
2024/03/20 12:10:23;;;;;;;2.38;1.50;;;20.40;24.50;;;;;;5008434;28;20717;-60
2024/03/20 12:12:50;;;;;;;1.40;1.30;;;20.50;24.60;;;;;;5002724;28;20224;-59
2024/03/20 12:15:21;;;;;;;1.67;1.58;;;20.80;24.00;;;;;;5009307;28;20214;-57
2024/03/20 12:17:47;;;;;;;1.70;1.50;;;20.70;24.10;;;;;;4999312;28;20236;-58
2024/03/20 12:20:15;;;;;;;1.60;1.50;;;20.70;23.70;;;;;;5010906;28;20218;-59
2024/03/20 12:22:41;;;;;;;1.70;1.60;;;20.70;24.00;;;;;;5000813;28;20231;-59
2024/03/20 12:25:08;;;;;;;1.55;1.45;;;21.00;23.70;;;;;;5009459;28;20211;-57
2024/03/20 12:27:35;;;;;;;1.88;1.48;;;21.20;23.40;;;;;;5008485;28;20460;-60
2024/03/20 12:30:00;;;;;;;1.85;1.50;;;21.20;22.90;;;;;;5003048;28;20659;-59
2024/03/20 12:32:27;;;;;;;2.28;1.80;;;21.10;22.80;;;;;;5004745;28;20227;-58
2024/03/20 12:34:53;;;;;;;1.70;1.55;;;21.10;23.40;;;;;;5009625;28;20208;-58
2024/03/20 12:37:20;;;;;;;2.30;1.33;;;21.10;22.90;;;;;;5011052;28;20289;-58
2024/03/20 12:39:45;;;;;;;1.60;1.50;;;21.50;23.10;;;;;;5005263;28;20610;-59
2024/03/20 12:42:12;;;;;;;2.38;1.60;;;22.70;21.70;;;;;;5003117;28;20223;-59
2024/03/20 12:44:38;;;;;;;1.60;1.40;;;23.70;20.80;;;;;;5007158;28;20207;-60
2024/03/20 12:47:04;;;;;;;1.85;1.50;;;24.30;19.80;;;;;;5009288;28;20273;-61
2024/03/20 12:49:31;;;;;;;3.00;1.48;;;24.40;20.40;;;;;;5011531;28;20379;-61